Latest Weather Observations for Forrest

IDW60801

Issued at 7:03 pm WST Saturday 22 July 2017 (issued every 30 minutes, with the page automatically refreshed every 10 minutes)

About weather observations | Map of weather stations | Latest weather observations for WA | Other Formats
Station Details ID: 011052 Name: FORREST Lat: -30.85 Lon: 128.11 Height: 159.0 m
Data from the previous 72 hours. | See also: Recent months at Forrest
Date/Time
WST
Temp
°C
App
Temp
°C
Dew
Point
°C
Rel
Hum
%
Delta-T
°C
Wind Press
QNH
hPa
Press
MSL
hPa
Rain since
9am
mm
Dir  Spd
km/h
Gust
km/h
Spd
kts
Gust
kts
22/07:00pm 12.4 7.0 1.4 47 4.7 WNW 19 19 10 10 1018.6 - 0.0
22/06:30pm 14.5 9.0 2.1 43 5.5 WNW 20 22 11 12 1018.4 - 0.0
22/06:00pm 14.3 9.3 1.6 42 5.6 WNW 17 17 9 9 1017.9 1018.1 0.0
22/05:30pm 16.4 11.5 2.1 38 6.4 W 17 19 9 10 1017.4 - 0.0
22/05:00pm 18.2 13.4 2.5 35 7.2 W 17 24 9 13 1016.9 - 0.0
22/04:30pm 20.1 14.4 2.9 32 8.1 W 22 32 12 17 1016.6 - 0.0
22/04:00pm 21.0 14.5 2.8 30 8.6 W 26 33 14 18 1016.3 - 0.0
22/03:30pm 21.5 14.7 3.2 30 8.8 WNW 28 35 15 19 1016.1 - 0.0
22/03:00pm 22.0 15.6 3.2 29 9.0 W 26 35 14 19 1015.9 1016.0 0.0
22/02:30pm 21.9 15.1 3.1 29 9.0 WNW 28 35 15 19 1015.8 - 0.0
22/02:00pm 21.9 15.6 3.6 30 8.9 WNW 26 37 14 20 1015.8 - 0.0
22/01:30pm 21.8 15.5 3.9 31 8.7 WNW 26 35 14 19 1016.0 - 0.0
22/01:00pm 21.5 15.3 4.1 32 8.5 WNW 26 35 14 19 1016.1 - 0.0
22/12:30pm 21.0 14.3 3.7 32 8.4 W 28 39 15 21 1016.3 - 0.0
22/12:10pm 21.5 14.8 3.7 31 8.6 W 28 46 15 25 1016.8 - 0.0
22/12:00pm 21.0 14.3 3.7 32 8.3 WNW 28 37 15 20 1017.0 1017.2 0.0
22/11:30am 20.8 14.1 3.5 32 8.3 W 28 37 15 20 1017.5 - 0.0
22/11:00am 20.8 14.5 4.0 33 8.1 W 26 39 14 21 1018.0 - 0.0
22/10:30am 20.0 13.7 3.7 34 7.8 W 26 37 14 20 1018.6 - 0.0
22/10:00am 19.2 14.4 4.6 38 7.1 W 19 26 10 14 1018.8 - 0.0
22/09:30am 18.7 14.3 4.8 40 6.7 WNW 17 20 9 11 1019.0 - 0.0
22/09:00am 16.6 12.9 4.6 45 5.7 NW 13 17 7 9 1018.9 1019.0 0.0
22/08:30am 14.7 10.9 4.1 49 4.9 NNW 13 17 7 9 1018.8 - 0.0
22/08:00am 12.4 8.2 3.9 56 3.9 WNW 15 19 8 10 1018.5 - 0.0
22/07:30am 10.0 4.9 2.8 61 3.1 WNW 19 22 10 12 1018.5 - 0.0
22/07:00am 8.6 3.4 2.4 65 2.6 WNW 19 22 10 12 1018.3 - 0.0
22/06:30am 7.0 1.6 1.5 68 2.2 WNW 19 20 10 11 1017.8 - 0.0
22/06:00am 7.1 1.7 1.4 67 2.3 WNW 19 20 10 11 1017.7 1017.9 0.0
22/05:30am 7.4 2.0 1.5 66 2.4 WNW 19 22 10 12 1017.4 - 0.0
22/05:00am 8.0 2.7 1.6 64 2.6 WNW 19 20 10 11 1017.1 - 0.0
22/04:30am 8.3 3.0 1.7 63 2.7 WNW 19 20 10 11 1016.9 - 0.0
22/04:00am 8.8 3.5 1.9 62 2.9 WNW 19 20 10 11 1016.9 - 0.0
22/03:30am 9.1 3.8 1.8 60 3.1 W 19 22 10 12 1016.9 - 0.0
22/03:00am 9.4 3.9 1.8 59 3.2 WNW 20 24 11 13 1017.0 1017.2 0.0
22/02:30am 9.4 4.1 2.0 60 3.1 WNW 19 22 10 12 1017.0 - 0.0
22/02:00am 7.5 2.7 0.3 60 2.9 WNW 15 17 8 9 1016.7 - 0.0
22/01:30am 8.2 2.7 0.7 59 3.0 WNW 19 19 10 10 1016.7 - 0.0
22/01:00am 7.9 2.3 -0.3 56 3.2 NW 19 19 10 10 1016.5 - 0.0
22/12:30am 7.3 2.0 -0.6 57 3.1 NW 17 20 9 11 1016.5 - 0.0
22/12:00am 8.0 3.5 -0.5 55 3.3 WNW 13 15 7 8 1016.5 1016.6 0.0
 
Date/Time
WST
Temp
°C
App
Temp
°C
Dew
Point
°C
Rel
Hum
%
Delta-T
°C
Wind Press
QNH
hPa
Press
MSL
hPa
Rain since
9am
mm
Dir  Spd
km/h
Gust
km/h
Spd
kts
Gust
kts
21/11:30pm 8.4 3.1 -0.6 53 3.5 WNW 17 20 9 11 1016.7 - 0.0
21/11:00pm 7.4 3.0 -2.1 51 3.6 WNW 11 15 6 8 1016.6 - 0.0
21/10:30pm 7.7 3.0 -1.8 51 3.6 WNW 13 20 7 11 1016.6 - 0.0
21/10:00pm 9.4 3.8 -0.2 51 3.9 WNW 19 19 10 10 1016.5 - 0.0
21/09:30pm 9.0 4.4 -0.9 50 3.9 NNW 13 15 7 8 1016.4 - 0.0
21/09:00pm 9.7 5.5 -0.8 48 4.2 N 11 11 6 6 1016.2 1016.3 0.0
21/08:30pm 10.8 7.6 0.5 49 4.3 NW 7 9 4 5 1016.1 - 0.0
21/08:00pm 12.3 8.0 0.7 45 4.9 WNW 13 13 7 7 1016.0 - 0.0
21/07:30pm 12.0 7.7 0.8 46 4.7 W 13 15 7 8 1015.8 - 0.0
21/07:00pm 13.6 9.0 1.3 43 5.3 W 15 17 8 9 1015.6 - 0.0
21/06:30pm 13.7 8.2 0.7 41 5.6 W 19 19 10 10 1015.4 - 0.0
21/06:00pm 14.4 9.7 0.6 39 5.9 W 15 17 8 9 1015.2 1015.3 0.0
21/05:30pm 15.8 11.5 0.8 36 6.5 W 13 17 7 9 1015.0 - 0.0
21/05:00pm 18.6 14.0 1.6 32 7.7 W 15 17 8 9 1014.7 - 0.0
21/04:30pm 20.9 14.7 2.2 29 8.8 WNW 24 33 13 18 1014.4 - 0.0
21/04:00pm 21.8 14.1 2.5 28 9.2 WNW 32 39 17 21 1014.5 - 0.0
21/03:30pm 22.5 14.9 2.6 27 9.5 WNW 32 39 17 21 1014.4 - 0.0
21/03:00pm 22.6 14.8 2.7 27 9.5 WNW 33 43 18 23 1014.2 1014.3 0.0
21/02:30pm 22.7 14.9 2.8 27 9.6 WNW 33 44 18 24 1014.2 - 0.0
21/02:00pm 23.0 15.4 3.0 27 9.7 WNW 32 41 17 22 1014.4 - 0.0
21/01:30pm 23.1 15.5 2.6 26 9.8 NW 32 39 17 21 1014.3 - 0.0
21/01:03pm 23.1 15.5 3.1 27 9.7 WNW 32 56 17 30 1014.5 - 0.0
21/01:00pm 22.8 15.2 2.8 27 9.6 WNW 32 43 17 23 1014.6 - 0.0
21/12:30pm 22.6 15.0 2.7 27 9.5 NW 32 41 17 22 1015.0 - 0.0
21/12:00pm 22.3 15.0 2.4 27 9.5 WNW 30 41 16 22 1015.3 1015.4 0.0
21/11:30am 21.8 15.0 3.0 29 9.0 NW 28 41 15 22 1015.8 - 0.0
21/11:00am 21.8 15.8 3.5 30 8.9 WNW 24 32 13 17 1016.4 - 0.0
21/10:30am 20.8 15.7 4.0 33 8.1 NW 20 28 11 15 1016.9 - 0.0
21/10:00am 19.8 15.0 4.7 37 7.4 NW 19 28 10 15 1017.3 - 0.0
21/09:30am 18.9 14.0 4.3 38 7.0 NW 19 22 10 12 1017.3 - 0.0
21/09:00am 17.6 12.7 3.9 40 6.5 NW 19 22 10 12 1017.3 1017.5 0.0
21/08:30am 16.0 11.0 3.4 43 5.8 NW 19 22 10 12 1017.3 - 0.0
21/08:00am 13.3 9.0 3.1 50 4.6 NW 15 19 8 10 1017.1 - 0.0
21/07:30am 10.2 5.2 1.6 55 3.6 NW 17 19 9 10 1016.7 - 0.0
21/07:00am 7.6 2.1 0.6 61 2.8 NNW 19 19 10 10 1016.3 - 0.0
21/06:30am 6.1 0.5 0.2 66 2.3 NW 19 20 10 11 1016.1 - 0.0
21/06:00am 6.0 1.2 0.3 67 2.2 NNW 15 20 8 11 1015.8 1015.9 0.0
21/05:30am 5.5 1.4 -0.1 67 2.2 NW 11 13 6 7 1015.7 - 0.0
21/05:00am 6.5 1.3 0.4 65 2.4 WNW 17 17 9 9 1015.5 - 0.0
21/04:30am 6.9 1.2 0.8 65 2.4 WNW 20 22 11 12 1015.2 - 0.0
21/04:00am 5.5 1.8 -0.3 66 2.2 NW 9 13 5 7 1015.1 - 0.0
21/03:30am 6.0 1.8 -0.7 62 2.6 WNW 11 13 6 7 1015.0 - 0.0
21/03:00am 6.5 2.1 0.6 66 2.3 WNW 13 15 7 8 1015.1 1015.2 0.0
21/02:30am 6.9 3.3 0.8 65 2.4 WNW 9 13 5 7 1014.8 - 0.0
21/02:00am 7.8 3.6 1.4 64 2.6 W 13 13 7 7 1014.9 - 0.0
21/01:30am 9.1 5.0 2.0 61 3.0 WSW 13 15 7 8 1014.8 - 0.0
21/01:00am 8.9 4.1 2.5 64 2.7 WSW 17 19 9 10 1014.7 - 0.0
21/12:30am 8.9 4.8 2.0 62 2.9 W 13 15 7 8 1014.9 - 0.0
21/12:00am 9.5 5.0 2.1 60 3.1 W 15 17 8 9 1014.7 1014.8 0.0
 
Date/Time
WST
Temp
°C
App
Temp
°C
Dew
Point
°C
Rel
Hum
%
Delta-T
°C
Wind Press
QNH
hPa
Press
MSL
hPa
Rain since
9am
mm
Dir  Spd
km/h
Gust
km/h
Spd
kts
Gust
kts
20/11:30pm 10.4 5.2 2.3 57 3.5 W 19 20 10 11 1014.5 - 0.0
20/11:00pm 10.6 5.7 2.2 56 3.6 W 17 19 9 10 1014.7 - 0.0
20/10:30pm 11.3 6.5 2.6 55 3.8 W 17 19 9 10 1014.5 - 0.0
20/10:00pm 11.8 6.6 2.5 53 4.1 W 19 22 10 12 1014.6 - 0.0
20/09:30pm 11.4 6.1 1.6 51 4.2 NNW 19 20 10 11 1014.2 - 0.0
20/09:00pm 11.4 7.1 1.1 49 4.3 N 13 13 7 7 1013.9 1014.0 0.0
20/08:30pm 11.1 6.3 -0.1 46 4.6 NNW 15 17 8 9 1013.8 - 0.0
20/08:00pm 12.6 8.3 1.3 46 4.8 NNW 13 15 7 8 1013.6 - 0.0
20/07:30pm 12.5 7.8 0.6 44 5.0 NW 15 17 8 9 1013.7 - 0.0
20/07:00pm 14.1 9.6 2.0 44 5.3 NW 15 17 8 9 1013.6 - 0.0
20/06:30pm 14.8 9.9 2.0 42 5.7 NW 17 19 9 10 1013.2 - 0.0
20/06:00pm 16.1 10.8 1.8 38 6.4 NNW 19 22 10 12 1012.9 1013.0 0.0
20/05:30pm 17.1 12.2 1.9 36 6.9 NNW 17 19 9 10 1012.5 - 0.0
20/05:00pm 19.3 14.4 2.2 32 7.9 NW 17 19 9 10 1012.1 - 0.0
20/04:30pm 21.9 17.1 2.6 28 9.2 WNW 17 20 9 11 1012.0 - 0.0
20/04:00pm 23.3 18.1 2.7 26 9.9 WNW 19 26 10 14 1011.6 - 0.0
20/03:30pm 23.7 17.2 2.5 25 10.2 NW 26 32 14 17 1011.4 - 0.0
20/03:00pm 24.1 17.5 2.3 24 10.5 WNW 26 33 14 18 1011.2 1011.3 0.0
20/02:30pm 24.5 16.6 0.8 21 11.1 NW 32 39 17 21 1011.0 - 0.0
20/02:00pm 24.9 16.7 0.4 20 11.4 NW 33 44 18 24 1011.2 - 0.0
20/01:30pm 24.6 16.0 0.2 20 11.3 NW 35 46 19 25 1011.4 - 0.0
20/01:00pm 23.6 15.5 0.0 21 10.8 NNW 32 39 17 21 1011.8 - 0.0
20/12:30pm 23.1 15.1 0.2 22 10.5 NNW 32 43 17 23 1012.3 - 0.0
20/12:00pm 23.7 15.6 0.7 22 10.7 NW 33 50 18 27 1013.1 1013.2 0.0
20/11:53am 22.8 14.8 0.6 23 10.2 NNW 32 50 17 27 1013.0 - 0.0
20/11:30am 22.4 14.6 1.4 25 9.8 NNW 32 39 17 21 1013.6 - 0.0
20/11:00am 21.3 13.4 1.0 26 9.3 N 32 37 17 20 1014.3 - 0.0
20/10:30am 19.5 12.0 1.0 29 8.4 N 30 39 16 21 1015.1 - 0.0
20/10:00am 18.0 10.5 1.1 32 7.6 N 30 37 16 20 1015.7 - 0.0
20/09:30am 16.3 8.7 0.8 35 6.8 N 30 35 16 19 1016.1 - 0.0
20/09:00am 14.5 7.0 1.1 40 5.8 N 30 37 16 20 1016.5 1016.6 0.0
20/08:30am 11.7 5.3 0.8 47 4.6 N 24 33 13 18 1016.7 - 0.0
20/08:00am 10.3 3.5 0.6 51 4.0 N 26 33 14 18 1016.5 - 0.0
20/07:30am 6.4 1.2 0.1 64 2.5 NNE 17 24 9 13 1016.5 - 0.0
20/07:00am 4.5 -0.8 -0.7 69 2.0 NE 17 20 9 11 1016.6 - 0.0
20/06:30am 3.3 -2.4 -1.1 73 1.6 NE 19 22 10 12 1016.4 - 0.0
20/06:00am 2.7 -2.3 -1.3 75 1.4 NE 15 19 8 10 1016.4 1016.5 0.0
20/05:30am 3.0 -2.4 -1.4 73 1.6 NE 17 19 9 10 1016.4 - 0.0
20/05:00am 3.3 -1.7 -1.3 72 1.7 NE 15 17 8 9 1016.5 - 0.0
20/04:30am 3.9 -0.3 -0.9 71 1.8 NE 11 13 6 7 1016.5 - 0.0
20/04:00am 4.0 -0.6 -1.0 70 1.9 NE 13 17 7 9 1016.4 - 0.0
20/03:30am 4.4 -0.5 -0.8 69 1.9 NNE 15 17 8 9 1016.9 - 0.0
20/03:00am 4.9 -0.4 -0.7 67 2.1 NNE 17 19 9 10 1017.0 1017.2 0.0
20/02:30am 5.5 -0.1 -0.3 66 2.2 NNE 19 24 10 13 1017.0 - 0.0
20/02:00am 5.2 -0.1 -0.6 66 2.2 NE 17 20 9 11 1017.3 - 0.0
20/01:30am 4.9 -0.4 -0.7 67 2.1 NE 17 19 9 10 1017.4 - 0.0
20/01:00am 4.8 -0.9 -1.0 66 2.2 NE 19 20 10 11 1017.7 - 0.0
20/12:30am 5.4 0.1 -0.8 64 2.3 NE 17 19 9 10 1018.3 - 0.0
20/12:00am 5.9 1.0 -0.6 63 2.5 NE 15 19 8 10 1018.8 1018.9 0.0
 
Date/Time
WST
Temp
°C
App
Temp
°C
Dew
Point
°C
Rel
Hum
%
Delta-T
°C
Wind Press
QNH
hPa
Press
MSL
hPa
Rain since
9am
mm
Dir  Spd
km/h
Gust
km/h
Spd
kts
Gust
kts
19/11:30pm 5.2 -0.2 -1.0 64 2.3 NE 17 19 9 10 1019.1 - 0.0
19/11:00pm 4.8 -0.3 -1.6 63 2.4 NE 15 17 8 9 1019.6 - 0.0
19/10:30pm 5.4 0.0 -1.3 62 2.5 NE 17 19 9 10 1019.8 - 0.0
19/10:00pm 5.1 0.4 -1.8 61 2.5 NE 13 15 7 8 1020.3 - 0.0
19/09:30pm 6.2 0.8 -1.2 59 2.8 NE 17 19 9 10 1020.3 - 0.0
19/09:00pm 6.0 1.0 -1.2 60 2.7 ENE 15 17 8 9 1020.5 1020.6 0.0
19/08:30pm 6.9 1.5 -1.0 57 3.0 ENE 17 19 9 10 1020.5 - 0.0
19/08:00pm 7.3 1.6 -0.9 56 3.2 ENE 19 22 10 12 1020.5 - 0.0
19/07:30pm 7.1 1.7 -1.3 55 3.2 ENE 17 19 9 10 1020.7 - 0.0

Other Formats:

Comma delimited format used in spreadsheet applications
http://www.bom.gov.au/fwo/IDW60801/IDW60801.95646.axf

JavaScript Object Notation format (JSON) in row-major order
http://www.bom.gov.au/fwo/IDW60801/IDW60801.95646.json